Wetterdaten: aktuell Montag, 15.10.2018 11:35
Datum Zeit Temp. auen Feuchte A. Luftdruck Regen Wind Richtung Richtung Sonnenschein Solar Windben
15.10.2018 11:35 15,6 C 73 % 1017,2 hPa 0,0 l/m 0,8 km/h (0 Bft) O 93 0 min 163 W/m 4,8 km/h (1 Bft)
15.10.2018 11:30 15,6 C 73 % 1017,2 hPa 0,0 l/m 0,0 km/h (0 Bft) O 83 0 min 151 W/m 1,6 km/h (1 Bft)
15.10.2018 11:25 15,7 C 73 % 1017,2 hPa 0,0 l/m 0,9 km/h (0 Bft) O 83 0 min 138 W/m 4,8 km/h (1 Bft)
15.10.2018 11:20 15,7 C 74 % 1017,2 hPa 0,0 l/m 0,0 km/h (0 Bft) O 83 0 min 155 W/m 1,6 km/h (1 Bft)
15.10.2018 11:15 15,6 C 73 % 1017,2 hPa 0,0 l/m 0,0 km/h (0 Bft) O 83 0 min 220 W/m 0,0 km/h (0 Bft)
15.10.2018 11:10 15,6 C 73 % 1017,3 hPa 0,0 l/m 0,8 km/h (0 Bft) O 83 0 min 141 W/m 4,8 km/h (1 Bft)
15.10.2018 11:05 15,6 C 72 % 1017,3 hPa 0,0 l/m 1,6 km/h (1 Bft) O 83 0 min 138 W/m 4,8 km/h (1 Bft)
15.10.2018 11:00 15,4 C 72 % 1017,3 hPa 0,0 l/m 0,0 km/h (0 Bft) O 79 5 min 457 W/m 1,6 km/h (1 Bft)
15.10.2018 10:55 15,1 C 74 % 1017,4 hPa 0,0 l/m 0,0 km/h (0 Bft) O 79 5 min 282 W/m 1,6 km/h (1 Bft)
15.10.2018 10:50 14,8 C 76 % 1017,4 hPa 0,0 l/m 2,7 km/h (1 Bft) O 79 5 min 435 W/m 4,8 km/h (1 Bft)
15.10.2018 10:45 14,7 C 76 % 1017,4 hPa 0,0 l/m 1,4 km/h (1 Bft) O 79 0 min 126 W/m 4,8 km/h (1 Bft)
15.10.2018 10:40 14,7 C 77 % 1017,6 hPa 0,0 l/m 0,9 km/h (0 Bft) O 79 0 min 144 W/m 4,8 km/h (1 Bft)
15.10.2018 10:35 14,6 C 77 % 1017,6 hPa 0,0 l/m 0,0 km/h (0 Bft) O 79 0 min 118 W/m 0,0 km/h (0 Bft)
15.10.2018 10:30 14,6 C 77 % 1017,6 hPa 0,0 l/m 2,7 km/h (1 Bft) O 79 0 min 88 W/m 4,8 km/h (1 Bft)
15.10.2018 10:25 14,4 C 78 % 1017,7 hPa 0,0 l/m 3,0 km/h (1 Bft) O 79 0 min 101 W/m 4,8 km/h (1 Bft)
15.10.2018 10:20 14,1 C 80 % 1017,7 hPa 0,0 l/m 0,2 km/h (0 Bft) O 79 5 min 311 W/m 3,2 km/h (1 Bft)
15.10.2018 10:15 13,6 C 80 % 1017,7 hPa 0,0 l/m 0,0 km/h (0 Bft) O 79 5 min 316 W/m 0,0 km/h (0 Bft)
15.10.2018 10:10 13,4 C 81 % 1017,7 hPa 0,0 l/m 0,0 km/h (0 Bft) O 79 5 min 240 W/m 0,0 km/h (0 Bft)
15.10.2018 10:05 13,4 C 82 % 1017,7 hPa 0,0 l/m 0,0 km/h (0 Bft) O 79 5 min 329 W/m 0,0 km/h (0 Bft)
15.10.2018 10:00 13,3 C 82 % 1017,7 hPa 0,0 l/m 0,6 km/h (0 Bft) O 79 5 min 321 W/m 3,2 km/h (1 Bft)
15.10.2018 09:55 13,2 C 82 % 1017,6 hPa 0,0 l/m 0,0 km/h (0 Bft) O 79 5 min 260 W/m 0,0 km/h (0 Bft)
15.10.2018 09:50 13,1 C 81 % 1017,6 hPa 0,0 l/m 0,0 km/h (0 Bft) O 79 0 min 82 W/m 0,0 km/h (0 Bft)
15.10.2018 09:45 12,9 C 82 % 1017,6 hPa 0,0 l/m 2,5 km/h (1 Bft) O 79 0 min 88 W/m 4,8 km/h (1 Bft)
15.10.2018 09:40 12,9 C 82 % 1017,6 hPa 0,0 l/m 2,7 km/h (1 Bft) O 79 0 min 101 W/m 4,8 km/h (1 Bft)
15.10.2018 09:35 12,9 C 81 % 1017,6 hPa 0,0 l/m 4,4 km/h (1 Bft) O 79 0 min 97 W/m 6,4 km/h (2 Bft)
15.10.2018 09:30 12,8 C 81 % 1017,6 hPa 0,0 l/m 1,0 km/h (0 Bft) O 79 0 min 81 W/m 4,8 km/h (1 Bft)
15.10.2018 09:25 12,8 C 81 % 1017,6 hPa 0,0 l/m 3,2 km/h (1 Bft) O 79 0 min 67 W/m 4,8 km/h (1 Bft)
15.10.2018 09:20 12,9 C 81 % 1017,6 hPa 0,0 l/m 0,8 km/h (0 Bft) O 79 0 min 49 W/m 4,8 km/h (1 Bft)
15.10.2018 09:15 12,9 C 81 % 1017,6 hPa 0,0 l/m 0,0 km/h (0 Bft) O 79 0 min 56 W/m 0,0 km/h (0 Bft)
15.10.2018 09:10 12,9 C 80 % 1017,5 hPa 0,0 l/m 0,0 km/h (0 Bft) O 79 0 min 73 W/m 0,0 km/h (0 Bft)
15.10.2018 09:05 12,9 C 80 % 1017,5 hPa 0,0 l/m 0,0 km/h (0 Bft) O 79 0 min 94 W/m 0,0 km/h (0 Bft)
15.10.2018 09:00 12,9 C 80 % 1017,5 hPa 0,0 l/m 0,0 km/h (0 Bft) O 79 0 min 69 W/m 0,0 km/h (0 Bft)
15.10.2018 08:55 12,9 C 79 % 1017,3 hPa 0,0 l/m 0,0 km/h (0 Bft) O 79 0 min 62 W/m 0,0 km/h (0 Bft)
15.10.2018 08:50 12,9 C 79 % 1017,3 hPa 0,0 l/m 2,3 km/h (1 Bft) O 79 0 min 58 W/m 4,8 km/h (1 Bft)
15.10.2018 08:45 12,8 C 79 % 1017,3 hPa 0,0 l/m 4,7 km/h (1 Bft) O 79 0 min 60 W/m 6,4 km/h (2 Bft)
15.10.2018 08:40 12,8 C 79 % 1017,3 hPa 0,0 l/m 3,9 km/h (1 Bft) O 79 0 min 56 W/m 6,4 km/h (2 Bft)
15.10.2018 08:35 12,8 C 79 % 1017,3 hPa 0,0 l/m 3,2 km/h (1 Bft) O 79 0 min 45 W/m 6,4 km/h (2 Bft)
15.10.2018 08:30 12,7 C 79 % 1017,3 hPa 0,0 l/m 1,5 km/h (1 Bft) O 79 0 min 37 W/m 3,2 km/h (1 Bft)
15.10.2018 08:25 12,7 C 79 % 1017,3 hPa 0,0 l/m 2,8 km/h (1 Bft) O 79 0 min 32 W/m 4,8 km/h (1 Bft)
15.10.2018 08:20 12,7 C 79 % 1017,3 hPa 0,0 l/m 3,7 km/h (1 Bft) O 79 0 min 30 W/m 4,8 km/h (1 Bft)
15.10.2018 08:15 12,8 C 79 % 1017,3 hPa 0,0 l/m 0,8 km/h (0 Bft) O 79 0 min 28 W/m 4,8 km/h (1 Bft)
15.10.2018 08:10 12,8 C 79 % 1017,2 hPa 0,0 l/m 1,4 km/h (1 Bft) O 79 0 min 28 W/m 4,8 km/h (1 Bft)
15.10.2018 08:05 12,8 C 79 % 1017,2 hPa 0,0 l/m 3,2 km/h (1 Bft) O 79 0 min 24 W/m 4,8 km/h (1 Bft)
15.10.2018 08:00 12,8 C 79 % 1017,2 hPa 0,0 l/m 2,9 km/h (1 Bft) O 79 0 min 19 W/m 4,8 km/h (1 Bft)
15.10.2018 07:55 12,8 C 79 % 1017,1 hPa 0,0 l/m 4,0 km/h (1 Bft) O 79 0 min 17 W/m 4,8 km/h (1 Bft)
15.10.2018 07:50 12,7 C 79 % 1017,1 hPa 0,0 l/m 4,0 km/h (1 Bft) O 79 0 min 15 W/m 4,8 km/h (1 Bft)
15.10.2018 07:45 12,6 C 79 % 1017,1 hPa 0,0 l/m 3,4 km/h (1 Bft) O 79 0 min 10 W/m 4,8 km/h (1 Bft)
15.10.2018 07:40 12,6 C 79 % 1016,9 hPa 0,0 l/m 2,3 km/h (1 Bft) O 79 0 min 0 W/m 3,2 km/h (1 Bft)
15.10.2018 07:35 12,6 C 79 % 1016,9 hPa 0,0 l/m 3,3 km/h (1 Bft) O 79 0 min 0 W/m 6,4 km/h (2 Bft)
15.10.2018 07:30 12,6 C 78 % 1016,9 hPa 0,0 l/m 2,5 km/h (1 Bft) O 79 0 min 0 W/m 4,8 km/h (1 Bft)
15.10.2018 07:25 12,6 C 78 % 1016,9 hPa 0,0 l/m 0,0 km/h (0 Bft) O 79 0 min 0 W/m 0,0 km/h (0 Bft)
15.10.2018 07:20 12,6 C 77 % 1016,9 hPa 0,0 l/m 0,0 km/h (0 Bft) O 79 0 min 0 W/m 0,0 km/h (0 Bft)
15.10.2018 07:15 12,7 C 77 % 1016,9 hPa 0,0 l/m 2,2 km/h (1 Bft) O 79 0 min 0 W/m 3,2 km/h (1 Bft)
15.10.2018 07:10 12,8 C 77 % 1016,8 hPa 0,0 l/m 2,9 km/h (1 Bft) O 79 0 min 0 W/m 4,8 km/h (1 Bft)
15.10.2018 07:05 12,8 C 77 % 1016,8 hPa 0,0 l/m 2,3 km/h (1 Bft) O 79 0 min 0 W/m 3,2 km/h (1 Bft)
15.10.2018 07:00 12,9 C 77 % 1016,8 hPa 0,0 l/m 0,3 km/h (0 Bft) O 79 0 min 0 W/m 3,2 km/h (1 Bft)
15.10.2018 06:55 12,9 C 77 % 1016,7 hPa 0,0 l/m 3,6 km/h (1 Bft) O 79 0 min 0 W/m 6,4 km/h (2 Bft)
15.10.2018 06:50 12,9 C 76 % 1016,7 hPa 0,0 l/m 5,9 km/h (2 Bft) O 84 0 min 0 W/m 8,0 km/h (2 Bft)
15.10.2018 06:45 12,9 C 76 % 1016,7 hPa 0,0 l/m 3,7 km/h (1 Bft) O 81 0 min 0 W/m 4,8 km/h (1 Bft)
15.10.2018 06:40 12,9 C 76 % 1016,8 hPa 0,0 l/m 3,4 km/h (1 Bft) O 81 0 min 0 W/m 4,8 km/h (1 Bft)
15.10.2018 06:35 12,9 C 76 % 1016,8 hPa 0,0 l/m 2,9 km/h (1 Bft) O 81 0 min 0 W/m 4,8 km/h (1 Bft)
15.10.2018 06:30 12,9 C 76 % 1016,8 hPa 0,0 l/m 3,5 km/h (1 Bft) O 81 0 min 0 W/m 4,8 km/h (1 Bft)
15.10.2018 06:25 12,9 C 76 % 1016,7 hPa 0,0 l/m 4,7 km/h (1 Bft) O 81 0 min 0 W/m 6,4 km/h (2 Bft)
15.10.2018 06:20 12,9 C 76 % 1016,7 hPa 0,0 l/m 4,9 km/h (1 Bft) O 81 0 min 0 W/m 6,4 km/h (2 Bft)
15.10.2018 06:15 13,1 C 77 % 1016,7 hPa 0,0 l/m 3,8 km/h (1 Bft) O 81 0 min 0 W/m 4,8 km/h (1 Bft)
15.10.2018 06:10 13,1 C 77 % 1016,6 hPa 0,0 l/m 4,6 km/h (1 Bft) O 81 0 min 0 W/m 6,4 km/h (2 Bft)
15.10.2018 06:05 13,2 C 76 % 1016,6 hPa 0,0 l/m 5,7 km/h (1 Bft) O 81 0 min 0 W/m 8,0 km/h (2 Bft)
15.10.2018 06:00 13,3 C 76 % 1016,6 hPa 0,0 l/m 3,7 km/h (1 Bft) O 81 0 min 0 W/m 6,4 km/h (2 Bft)
15.10.2018 05:55 13,4 C 76 % 1016,5 hPa 0,0 l/m 0,0 km/h (0 Bft) O 81 0 min 0 W/m 0,0 km/h (0 Bft)
15.10.2018 05:50 13,4 C 76 % 1016,5 hPa 0,0 l/m 2,3 km/h (1 Bft) O 81 0 min 0 W/m 4,8 km/h (1 Bft)
15.10.2018 05:45 13,6 C 76 % 1016,5 hPa 0,0 l/m 4,3 km/h (1 Bft) O 81 0 min 0 W/m 6,4 km/h (2 Bft)
15.10.2018 05:40 13,7 C 75 % 1016,6 hPa 0,0 l/m 0,9 km/h (0 Bft) O 81 0 min 0 W/m 4,8 km/h (1 Bft)
15.10.2018 05:35 13,7 C 75 % 1016,6 hPa 0,0 l/m 1,2 km/h (1 Bft) O 81 0 min 0 W/m 4,8 km/h (1 Bft)
15.10.2018 05:30 13,7 C 74 % 1016,6 hPa 0,0 l/m 1,7 km/h (1 Bft) O 81 0 min 0 W/m 6,4 km/h (2 Bft)
15.10.2018 05:25 13,7 C 74 % 1016,5 hPa 0,0 l/m 4,6 km/h (1 Bft) O 81 0 min 0 W/m 6,4 km/h (2 Bft)
15.10.2018 05:20 13,7 C 75 % 1016,5 hPa 0,0 l/m 5,0 km/h (1 Bft) O 81 0 min 0 W/m 6,4 km/h (2 Bft)
15.10.2018 05:15 13,6 C 75 % 1016,5 hPa 0,0 l/m 6,2 km/h (2 Bft) O 81 0 min 0 W/m 8,0 km/h (2 Bft)
15.10.2018 05:10 13,6 C 76 % 1016,4 hPa 0,0 l/m 3,5 km/h (1 Bft) O 86 0 min 0 W/m 4,8 km/h (1 Bft)
15.10.2018 05:05 13,6 C 76 % 1016,4 hPa 0,0 l/m 4,5 km/h (1 Bft) O 86 0 min 0 W/m 6,4 km/h (2 Bft)
15.10.2018 05:00 13,6 C 76 % 1016,4 hPa 0,0 l/m 7,2 km/h (2 Bft) O 86 0 min 0 W/m 8,0 km/h (2 Bft)
15.10.2018 04:55 13,6 C 76 % 1016,4 hPa 0,0 l/m 2,9 km/h (1 Bft) O 79 0 min 0 W/m 6,4 km/h (2 Bft)
15.10.2018 04:50 13,7 C 76 % 1016,4 hPa 0,0 l/m 0,0 km/h (0 Bft) O 79 0 min 0 W/m 0,0 km/h (0 Bft)
15.10.2018 04:45 13,7 C 75 % 1016,4 hPa 0,0 l/m 0,0 km/h (0 Bft) O 79 0 min 0 W/m 0,0 km/h (0 Bft)
15.10.2018 04:40 13,8 C 75 % 1016,4 hPa 0,0 l/m 0,0 km/h (0 Bft) O 79 0 min 0 W/m 0,0 km/h (0 Bft)
15.10.2018 04:35 13,8 C 75 % 1016,4 hPa 0,0 l/m 0,0 km/h (0 Bft) O 79 0 min 0 W/m 0,0 km/h (0 Bft)
15.10.2018 04:30 13,9 C 74 % 1016,4 hPa 0,0 l/m 0,3 km/h (0 Bft) O 79 0 min 0 W/m 3,2 km/h (1 Bft)
15.10.2018 04:25 13,6 C 76 % 1015,9 hPa 0,0 l/m 0,0 km/h (0 Bft) O 79 0 min 0 W/m 0,0 km/h (0 Bft)
15.10.2018 04:20 13,6 C 76 % 1015,9 hPa 0,0 l/m 0,0 km/h (0 Bft) O 79 0 min 0 W/m 0,0 km/h (0 Bft)
15.10.2018 04:15 13,6 C 76 % 1015,9 hPa 0,0 l/m 0,0 km/h (0 Bft) O 79 0 min 0 W/m 0,0 km/h (0 Bft)
15.10.2018 04:11 13,6 C 76 % 1016,5 hPa 0,0 l/m 0,0 km/h (0 Bft) O 79 0 min 0 W/m 0,0 km/h (0 Bft)
15.10.2018 04:00 13,6 C 76 % 1016,5 hPa 0,0 l/m 3,2 km/h (1 Bft) O 79 0 min 0 W/m 4,8 km/h (1 Bft)
15.10.2018 03:55 13,6 C 76 % 1016,7 hPa 0,0 l/m 4,3 km/h (1 Bft) O 79 0 min 0 W/m 6,4 km/h (2 Bft)
15.10.2018 03:50 13,6 C 76 % 1016,7 hPa 0,0 l/m 1,5 km/h (1 Bft) O 79 0 min 0 W/m 6,4 km/h (2 Bft)
15.10.2018 03:45 13,6 C 76 % 1016,7 hPa 0,0 l/m 1,8 km/h (1 Bft) O 79 0 min 0 W/m 4,8 km/h (1 Bft)
15.10.2018 03:40 13,6 C 76 % 1016,6 hPa 0,0 l/m 4,2 km/h (1 Bft) O 79 0 min 0 W/m 6,4 km/h (2 Bft)
15.10.2018 03:35 13,6 C 76 % 1016,6 hPa 0,0 l/m 5,2 km/h (1 Bft) O 79 0 min 0 W/m 6,4 km/h (2 Bft)
15.10.2018 03:30 13,6 C 76 % 1016,6 hPa 0,0 l/m 4,9 km/h (1 Bft) O 79 0 min 0 W/m 6,4 km/h (2 Bft)
15.10.2018 03:25 13,8 C 75 % 1016,5 hPa 0,0 l/m 2,7 km/h (1 Bft) O-NO 77 0 min 0 W/m 6,4 km/h (2 Bft)
15.10.2018 03:20 13,8 C 74 % 1016,5 hPa 0,0 l/m 2,5 km/h (1 Bft) O-NO 77 0 min 0 W/m 4,8 km/h (1 Bft)
15.10.2018 03:15 13,8 C 74 % 1016,5 hPa 0,0 l/m 4,1 km/h (1 Bft) O-NO 77 0 min 0 W/m 6,4 km/h (2 Bft)
15.10.2018 03:10 13,8 C 74 % 1016,6 hPa 0,0 l/m 6,6 km/h (2 Bft) O-NO 77 0 min 0 W/m 9,7 km/h (2 Bft)
15.10.2018 03:05 13,8 C 75 % 1016,6 hPa 0,0 l/m 3,3 km/h (1 Bft) O-NO 74 0 min 0 W/m 6,4 km/h (2 Bft)
15.10.2018 03:00 13,8 C 75 % 1016,6 hPa 0,0 l/m 4,3 km/h (1 Bft) O-NO 75 0 min 0 W/m 8,0 km/h (2 Bft)
15.10.2018 02:55 13,8 C 76 % 1016,6 hPa 0,0 l/m 5,8 km/h (2 Bft) O-NO 75 0 min 0 W/m 8,0 km/h (2 Bft)
15.10.2018 02:50 13,8 C 76 % 1016,6 hPa 0,0 l/m 5,6 km/h (1 Bft) O-NO 75 0 min 0 W/m 8,0 km/h (2 Bft)
15.10.2018 02:45 13,7 C 77 % 1016,6 hPa 0,0 l/m 6,0 km/h (2 Bft) O 80 0 min 0 W/m 8,0 km/h (2 Bft)
15.10.2018 02:40 13,7 C 77 % 1016,8 hPa 0,0 l/m 4,4 km/h (1 Bft) O 84 0 min 0 W/m 6,4 km/h (2 Bft)
15.10.2018 02:35 13,8 C 77 % 1016,8 hPa 0,0 l/m 6,7 km/h (2 Bft) O 84 0 min 0 W/m 8,0 km/h (2 Bft)
15.10.2018 02:30 13,9 C 76 % 1016,8 hPa 0,0 l/m 4,0 km/h (1 Bft) O-NO 70 0 min 0 W/m 6,4 km/h (2 Bft)
15.10.2018 02:25 14,3 C 75 % 1016,7 hPa 0,0 l/m 1,3 km/h (1 Bft) O-NO 69 0 min 0 W/m 4,8 km/h (1 Bft)
15.10.2018 02:20 14,6 C 75 % 1016,7 hPa 0,0 l/m 3,3 km/h (1 Bft) O-NO 69 0 min 0 W/m 6,4 km/h (2 Bft)
15.10.2018 02:15 14,6 C 74 % 1016,7 hPa 0,0 l/m 1,6 km/h (1 Bft) O-NO 64 0 min 0 W/m 4,8 km/h (1 Bft)
15.10.2018 02:10 14,7 C 74 % 1016,6 hPa 0,0 l/m 0,9 km/h (0 Bft) O-NO 64 0 min 0 W/m 3,2 km/h (1 Bft)
15.10.2018 02:05 14,8 C 74 % 1016,6 hPa 0,0 l/m 4,3 km/h (1 Bft) O-NO 64 0 min 0 W/m 6,4 km/h (2 Bft)
15.10.2018 02:00 14,9 C 75 % 1016,6 hPa 0,0 l/m 1,8 km/h (1 Bft) O-NO 64 0 min 0 W/m 4,8 km/h (1 Bft)
15.10.2018 01:55 15,1 C 74 % 1016,6 hPa 0,0 l/m 4,7 km/h (1 Bft) O-NO 64 0 min 0 W/m 8,0 km/h (2 Bft)
15.10.2018 01:50 15,2 C 74 % 1016,6 hPa 0,0 l/m 1,6 km/h (1 Bft) O-NO 60 0 min 0 W/m 4,8 km/h (1 Bft)
15.10.2018 01:45 15,2 C 74 % 1016,6 hPa 0,0 l/m 5,0 km/h (1 Bft) O-NO 59 0 min 0 W/m 9,7 km/h (2 Bft)
15.10.2018 01:40 15,3 C 75 % 1016,5 hPa 0,0 l/m 2,1 km/h (1 Bft) NW 312 0 min 0 W/m 6,4 km/h (2 Bft)
15.10.2018 01:35 15,4 C 75 % 1016,5 hPa 0,0 l/m 5,6 km/h (1 Bft) O-NO 75 0 min 0 W/m 8,0 km/h (2 Bft)
15.10.2018 01:30 15,6 C 75 % 1016,5 hPa 0,0 l/m 6,4 km/h (2 Bft) O-NO 74 0 min 0 W/m 8,0 km/h (2 Bft)
15.10.2018 01:25 15,9 C 74 % 1016,5 hPa 0,0 l/m 4,9 km/h (1 Bft) O-NO 73 0 min 0 W/m 8,0 km/h (2 Bft)
15.10.2018 01:20 16,0 C 72 % 1016,5 hPa 0,0 l/m 3,3 km/h (1 Bft) O-NO 71 0 min 0 W/m 4,8 km/h (1 Bft)
15.10.2018 01:15 16,1 C 70 % 1016,5 hPa 0,0 l/m 4,5 km/h (1 Bft) O-NO 70 0 min 0 W/m 6,4 km/h (2 Bft)
15.10.2018 01:10 16,2 C 69 % 1016,7 hPa 0,0 l/m 2,9 km/h (1 Bft) O-NO 70 0 min 0 W/m 4,8 km/h (1 Bft)
15.10.2018 01:05 16,2 C 68 % 1016,7 hPa 0,0 l/m 4,6 km/h (1 Bft) O-NO 70 0 min 0 W/m 8,0 km/h (2 Bft)
15.10.2018 01:00 16,3 C 67 % 1016,7 hPa 0,0 l/m 0,7 km/h (0 Bft) O-NO 65 0 min 0 W/m 6,4 km/h (2 Bft)
15.10.2018 00:55 16,4 C 66 % 1016,6 hPa 0,0 l/m 2,6 km/h (1 Bft) O-NO 63 0 min 0 W/m 8,0 km/h (2 Bft)
15.10.2018 00:50 16,3 C 66 % 1016,6 hPa 0,0 l/m 6,6 km/h (2 Bft) O-NO 75 0 min 0 W/m 11,3 km/h (2 Bft)
15.10.2018 00:45 16,2 C 67 % 1016,6 hPa 0,0 l/m 2,0 km/h (1 Bft) SO 136 0 min 0 W/m 8,0 km/h (2 Bft)
15.10.2018 00:40 16,2 C 67 % 1016,6 hPa 0,0 l/m 6,4 km/h (2 Bft) SO 136 0 min 0 W/m 14,5 km/h (3 Bft)
15.10.2018 00:35 16,2 C 68 % 1016,6 hPa 0,0 l/m 4,1 km/h (1 Bft) O 98 0 min 0 W/m 8,0 km/h (2 Bft)
15.10.2018 00:30 16,2 C 68 % 1016,6 hPa 0,0 l/m 4,0 km/h (1 Bft) O 83 0 min 0 W/m 6,4 km/h (2 Bft)
15.10.2018 00:25 16,2 C 68 % 1016,6 hPa 0,0 l/m 1,3 km/h (1 Bft) O 83 0 min 0 W/m 4,8 km/h (1 Bft)
15.10.2018 00:20 16,2 C 68 % 1016,6 hPa 0,0 l/m 3,6 km/h (1 Bft) O 79 0 min 0 W/m 8,0 km/h (2 Bft)
15.10.2018 00:15 16,2 C 67 % 1016,6 hPa 0,0 l/m 1,2 km/h (1 Bft) S-SO 164 0 min 0 W/m 6,4 km/h (2 Bft)
15.10.2018 00:10 16,3 C 67 % 1016,7 hPa 0,0 l/m 0,0 km/h (0 Bft) S-SO 167 0 min 0 W/m 0,0 km/h (0 Bft)
15.10.2018 00:05 16,3 C 66 % 1016,7 hPa 0,0 l/m 1,9 km/h (1 Bft) S-SO 167 0 min 0 W/m 8,0 km/h (2 Bft)
15.10.2018 00:00 16,2 C 66 % 1016,7 hPa 0,0 l/m 3,2 km/h (1 Bft) O-NO 63 0 min 0 W/m 4,8 km/h (1 Bft)
_ Min-Zeit 07:20 00:00 04:15 - 00:10 - - - - 00:10
Minimum _ 12,6 C 66 % 1015,9 hPa - 0,0 km/h (0 Bft) - - - - 0,0 km/h (0 Bft)
_ Max-Zeit 00:55 09:40 10:00 00:00 05:00 - - 09:55 11:00 00:40
Maximum _ 16,4 C 82 % 1017,7 hPa 0,0 l/m 7,2 km/h
O (2 Bft)
- - 5 min 457 W/m 14,5 km/h
SO (3 Bft)
Durchschnitt _ 14,0 C 76 % 1016,9 hPa #0,0 l/m 2,6 km/h (1 Bft) O - #45 min. 128 W/m 4,7 km/h (1 Bft)